createdAt,value
2019-05-03T00:00:58.053Z,37.70
2019-05-03T00:03:27.392Z,35.83
2019-05-03T00:06:01.761Z,30.73
2019-05-03T00:08:33.238Z,34.13
2019-05-03T00:11:02.578Z,37.07
2019-05-03T00:13:32.513Z,42.60
2019-05-03T00:16:03.668Z,44.83
2019-05-03T00:18:32.954Z,47.53
2019-05-03T00:21:02.235Z,46.07
2019-05-03T00:23:32.386Z,47.73
2019-05-03T00:26:02.938Z,46.40
2019-05-03T00:28:33.184Z,52.33
2019-05-03T00:31:02.713Z,50.33
2019-05-03T00:33:32.334Z,43.57
2019-05-03T00:36:09.308Z,46.83
2019-05-03T00:38:38.594Z,46.57
2019-05-03T00:41:07.873Z,48.60
2019-05-03T00:43:37.169Z,44.10
2019-05-03T00:46:06.511Z,45.50
2019-05-03T00:48:36.113Z,43.23
2019-05-03T00:51:05.389Z,46.10
2019-05-03T00:53:34.929Z,44.60
2019-05-03T00:56:04.337Z,43.97
2019-05-03T00:58:35.265Z,43.70
2019-05-03T01:01:04.877Z,41.17
2019-05-03T01:03:34.166Z,43.10
2019-05-03T01:06:03.453Z,39.58
2019-05-03T01:08:32.804Z,38.70
2019-05-03T01:11:02.258Z,40.67
2019-05-03T01:13:32.112Z,39.45
2019-05-03T01:16:06.223Z,42.20
2019-05-03T01:18:35.818Z,43.63
2019-05-03T01:21:05.269Z,40.40
2019-05-03T01:23:34.553Z,43.77
2019-05-03T01:26:03.898Z,43.67
2019-05-03T01:28:34.161Z,45.73
2019-05-03T01:31:03.437Z,41.10
2019-05-03T01:33:32.713Z,46.13
2019-05-03T01:36:03.278Z,45.13
2019-05-03T01:38:32.563Z,45.37
2019-05-03T01:41:01.938Z,43.40
2019-05-03T01:43:31.908Z,43.97
2019-05-03T01:46:02.688Z,41.70
2019-05-03T01:48:41.643Z,36.47
2019-05-03T01:51:21.973Z,43.20
2019-05-03T01:53:52.371Z,39.13
2019-05-03T01:56:22.278Z,41.00
2019-05-03T01:58:52.405Z,39.00
2019-05-03T02:01:26.680Z,37.00
2019-05-03T02:03:57.840Z,34.60
2019-05-03T02:06:27.454Z,36.73
2019-05-03T02:08:57.063Z,36.97
2019-05-03T02:11:26.357Z,38.88
2019-05-03T02:13:55.641Z,35.78
2019-05-03T02:16:25.007Z,36.00
2019-05-03T02:18:54.278Z,36.77
2019-05-03T02:21:23.873Z,31.53
2019-05-03T02:23:53.157Z,39.80
2019-05-03T02:26:22.777Z,37.30
2019-05-03T02:28:52.749Z,37.37
2019-05-03T02:31:23.213Z,35.33
2019-05-03T02:33:53.494Z,46.50
2019-05-03T02:36:23.429Z,32.50
2019-05-03T02:38:53.711Z,38.90
2019-05-03T02:41:23.154Z,35.78
2019-05-03T02:43:56.042Z,37.80
2019-05-03T02:46:38.741Z,38.30
2019-05-03T02:49:15.263Z,40.87
2019-05-03T02:51:45.944Z,39.13
2019-05-03T02:54:15.732Z,43.30
2019-05-03T02:56:46.140Z,43.73
2019-05-03T02:59:16.064Z,42.47
2019-05-03T03:01:46.600Z,48.80
2019-05-03T03:04:16.902Z,55.83
2019-05-03T03:06:47.542Z,46.20
2019-05-03T03:09:18.724Z,48.90
2019-05-03T03:11:50.857Z,48.23
2019-05-03T03:14:22.303Z,47.37
2019-05-03T03:16:55.957Z,51.10
2019-05-03T03:19:27.663Z,45.63
2019-05-03T03:22:00.276Z,48.03
2019-05-03T03:24:31.449Z,59.47
2019-05-03T03:27:05.367Z,57.85
2019-05-03T03:29:36.030Z,59.80
2019-05-03T03:32:17.675Z,55.60
2019-05-03T03:35:02.723Z,50.10
2019-05-03T03:37:27.693Z,58.05
2019-05-03T03:39:57.044Z,62.17
2019-05-03T03:42:27.907Z,56.45
2019-05-03T03:44:57.734Z,53.27
2019-05-03T03:47:30.158Z,51.70
2019-05-03T03:50:01.978Z,54.70
2019-05-03T03:52:35.873Z,47.62
2019-05-03T03:55:06.405Z,49.75
2019-05-03T03:57:36.672Z,55.35
2019-05-03T04:00:07.695Z,50.12
2019-05-03T04:02:38.946Z,47.90
2019-05-03T04:05:08.844Z,42.83
2019-05-03T04:07:39.205Z,46.25
2019-05-03T04:10:09.539Z,42.62
2019-05-03T04:12:40.331Z,46.98
2019-05-03T04:15:20.618Z,40.60
2019-05-03T04:17:51.825Z,46.00
2019-05-03T04:20:26.015Z,45.20
2019-05-03T04:22:56.094Z,46.20
2019-05-03T04:25:28.074Z,43.55
2019-05-03T04:27:57.551Z,45.48
2019-05-03T04:30:26.830Z,43.80
2019-05-03T04:32:56.606Z,39.70
2019-05-03T04:35:26.839Z,42.33
2019-05-03T04:37:56.365Z,45.33
2019-05-03T04:40:26.199Z,39.08
2019-05-03T04:42:57.145Z,39.33
2019-05-03T04:45:26.733Z,42.88
2019-05-03T04:47:56.464Z,44.47
2019-05-03T04:50:26.760Z,39.00
2019-05-03T04:52:56.659Z,42.45
2019-05-03T04:55:26.855Z,46.37
2019-05-03T04:57:56.483Z,41.25
2019-05-03T05:00:26.121Z,45.78
2019-05-03T05:02:55.544Z,43.37
2019-05-03T05:05:26.180Z,49.88
2019-05-03T05:07:56.854Z,38.78
2019-05-03T05:10:26.507Z,46.40
2019-05-03T05:12:56.218Z,47.00
2019-05-03T05:15:26.530Z,43.83
2019-05-03T05:18:05.709Z,44.33
2019-05-03T05:20:42.653Z,41.30
2019-05-03T05:23:12.112Z,43.02
2019-05-03T05:25:45.975Z,42.15
2019-05-03T05:28:35.499Z,43.45
2019-05-03T05:31:05.155Z,49.67
2019-05-03T05:33:35.504Z,43.60
2019-05-03T05:36:05.081Z,47.33
2019-05-03T05:38:34.749Z,51.07
2019-05-03T05:41:05.296Z,52.35
2019-05-03T05:43:35.729Z,49.60
2019-05-03T05:46:05.376Z,23.40
2019-05-03T05:48:36.904Z,27.25
2019-05-03T05:51:06.194Z,16.52
2019-05-03T05:53:35.966Z,18.37
2019-05-03T05:56:10.040Z,16.95
2019-05-03T05:58:41.278Z,14.83
2019-05-03T06:01:12.219Z,17.40
2019-05-03T06:03:44.869Z,16.60
2019-05-03T06:06:16.144Z,13.62
2019-05-03T06:08:56.310Z,11.45
2019-05-03T06:11:34.611Z,16.25
2019-05-03T06:14:05.824Z,9.30
2019-05-03T06:16:36.929Z,10.00
2019-05-03T06:19:07.853Z,9.05
2019-05-03T06:21:47.990Z,14.75
2019-05-03T06:24:24.996Z,6.95
2019-05-03T06:27:15.299Z,9.98
2019-05-03T06:29:46.077Z,11.43
2019-05-03T06:32:25.672Z,11.40
2019-05-03T06:34:54.958Z,12.85
2019-05-03T06:37:29.062Z,7.13
2019-05-03T06:39:58.563Z,6.83
2019-05-03T06:42:28.173Z,8.00
2019-05-03T06:44:59.701Z,7.58
2019-05-03T06:47:28.722Z,7.60
2019-05-03T06:49:58.178Z,6.37
2019-05-03T06:52:29.265Z,4.40
2019-05-03T06:55:00.434Z,9.90
2019-05-03T06:57:30.046Z,6.50
2019-05-03T07:00:05.210Z,8.55
2019-05-03T07:02:39.838Z,7.20
2019-05-03T07:05:15.285Z,7.70
2019-05-03T07:07:58.297Z,6.05
2019-05-03T07:10:32.361Z,5.60
2019-05-03T07:13:04.987Z,9.45
2019-05-03T07:15:35.149Z,7.00
2019-05-03T07:18:05.741Z,7.47
2019-05-03T07:20:49.609Z,7.67
2019-05-03T07:23:18.886Z,9.27
2019-05-03T07:25:48.472Z,9.27
2019-05-03T07:28:17.725Z,5.77
2019-05-03T07:30:47.012Z,8.30
2019-05-03T07:33:30.149Z,8.23
2019-05-03T07:35:59.429Z,5.53
2019-05-03T07:38:28.707Z,5.57
2019-05-03T07:40:58.053Z,4.33
2019-05-03T07:43:27.328Z,4.40
2019-05-03T07:45:56.605Z,5.27
2019-05-03T07:48:27.214Z,4.97
2019-05-03T07:50:56.498Z,4.60
2019-05-03T07:53:26.010Z,3.97
2019-05-03T07:56:15.572Z,7.47
2019-05-03T07:58:59.333Z,7.77
2019-05-03T08:01:19.831Z,5.97
2019-05-03T08:03:49.237Z,9.50
2019-05-03T08:06:18.519Z,9.53
2019-05-03T08:08:47.798Z,7.87
2019-05-03T08:11:17.309Z,3.50
2019-05-03T08:13:46.841Z,6.53
2019-05-03T08:16:16.177Z,3.70
2019-05-03T08:21:37.715Z,6.13
2019-05-03T08:24:04.994Z,4.63
2019-05-03T08:26:34.997Z,4.00
2019-05-03T08:29:15.679Z,3.30
2019-05-03T08:31:43.041Z,5.43
2019-05-03T08:34:25.597Z,3.93
2019-05-03T08:37:05.230Z,6.17
2019-05-03T08:39:35.587Z,7.50
2019-05-03T08:42:10.233Z,6.97
2019-05-03T08:44:39.507Z,5.97
2019-05-03T08:47:08.785Z,7.50
2019-05-03T08:49:38.065Z,4.40
2019-05-03T08:52:07.341Z,6.27
2019-05-03T08:54:36.894Z,5.90
2019-05-03T08:57:06.511Z,8.33
2019-05-03T08:59:35.953Z,6.10
2019-05-03T09:02:14.079Z,5.63
2019-05-03T09:04:39.477Z,5.57
2019-05-03T09:07:08.557Z,5.93
2019-05-03T09:09:39.762Z,5.60
2019-05-03T09:12:09.050Z,5.60
2019-05-03T09:14:42.753Z,7.20
2019-05-03T09:17:09.541Z,4.33
2019-05-03T09:19:38.829Z,6.53
2019-05-03T09:22:08.093Z,6.10
2019-05-03T09:24:37.369Z,5.30
2019-05-03T09:27:06.643Z,6.63
2019-05-03T09:29:43.205Z,7.10
2019-05-03T09:32:07.294Z,8.80
2019-05-03T09:34:36.578Z,6.93
2019-05-03T09:37:05.853Z,6.23
2019-05-03T09:39:35.619Z,5.90
2019-05-03T09:42:05.410Z,4.53
2019-05-03T09:44:35.110Z,5.33
2019-05-03T09:47:05.688Z,4.93
2019-05-03T09:49:36.225Z,7.67
2019-05-03T09:52:08.349Z,5.73
2019-05-03T09:54:38.198Z,4.17
2019-05-03T09:57:07.485Z,3.57
2019-05-03T09:59:37.054Z,4.83
2019-05-03T10:02:06.478Z,6.03
2019-05-03T10:04:36.622Z,6.90
2019-05-03T10:07:07.525Z,8.00
2019-05-03T10:09:37.119Z,4.10
2019-05-03T10:12:08.129Z,5.77
2019-05-03T10:14:37.770Z,5.60
2019-05-03T10:17:20.765Z,7.03
2019-05-03T10:19:50.050Z,5.13
2019-05-03T10:22:22.389Z,3.90
2019-05-03T10:24:51.966Z,4.20
2019-05-03T10:27:21.574Z,4.43
2019-05-03T10:29:51.921Z,4.70
2019-05-03T10:32:39.230Z,6.50
2019-05-03T10:35:15.904Z,4.10
2019-05-03T10:37:45.407Z,11.20
2019-05-03T10:40:17.869Z,8.00
2019-05-03T10:42:47.328Z,5.10
2019-05-03T10:45:16.586Z,5.83
2019-05-03T10:47:45.865Z,6.00
2019-05-03T10:50:15.681Z,5.80
2019-05-03T10:52:49.457Z,4.23
2019-05-03T10:55:18.744Z,5.90
2019-05-03T10:57:49.661Z,5.40
2019-05-03T11:00:42.406Z,4.53
2019-05-03T11:02:59.365Z,8.17
2019-05-03T11:05:28.660Z,5.60
2019-05-03T11:07:57.997Z,4.97
2019-05-03T11:10:27.617Z,8.77
2019-05-03T11:12:56.884Z,4.93
2019-05-03T11:15:26.417Z,7.50
2019-05-03T11:17:56.029Z,3.73
2019-05-03T11:20:36.084Z,4.87
2019-05-03T11:23:06.673Z,5.80
2019-05-03T11:25:36.785Z,3.87
2019-05-03T11:28:20.673Z,5.97
2019-05-03T11:30:56.460Z,8.37
2019-05-03T11:33:25.501Z,5.00
2019-05-03T11:35:56.412Z,8.20
2019-05-03T11:38:39.520Z,4.20
2019-05-03T11:41:08.797Z,9.93
2019-05-03T11:43:38.072Z,6.50
2019-05-03T11:46:07.723Z,6.80
2019-05-03T11:48:36.993Z,5.73
2019-05-03T11:51:06.266Z,5.43
2019-05-03T11:53:35.749Z,6.07
2019-05-03T11:56:05.596Z,5.63
2019-05-03T11:58:35.248Z,4.30
2019-05-03T12:01:14.927Z,4.87
2019-05-03T12:03:38.838Z,6.33
2019-05-03T12:06:09.189Z,4.10
2019-05-03T12:08:38.778Z,4.00
2019-05-03T12:11:08.385Z,4.00
2019-05-03T12:13:37.993Z,3.27
2019-05-03T12:16:16.959Z,4.87
2019-05-03T12:18:48.991Z,4.20
2019-05-03T12:21:11.394Z,7.47
2019-05-03T12:23:41.615Z,6.70
2019-05-03T12:26:13.676Z,8.13
2019-05-03T12:28:44.745Z,6.00
2019-05-03T12:31:29.659Z,5.30
2019-05-03T12:33:46.007Z,6.93
2019-05-03T12:36:15.729Z,3.80
2019-05-03T12:38:45.358Z,9.07
2019-05-03T12:41:15.653Z,9.80
2019-05-03T12:43:44.939Z,6.13
2019-05-03T12:46:16.659Z,6.00
2019-05-03T12:48:45.613Z,5.87
2019-05-03T12:51:15.432Z,9.60
2019-05-03T12:53:45.450Z,4.80
2019-05-03T12:56:22.556Z,6.30
2019-05-03T12:58:56.953Z,7.47
2019-05-03T13:01:45.818Z,8.10
2019-05-03T13:04:24.827Z,9.10
2019-05-03T13:06:55.710Z,7.43
2019-05-03T13:09:25.301Z,7.63
2019-05-03T13:11:59.127Z,7.63
2019-05-03T13:14:27.911Z,5.40
2019-05-03T13:16:57.191Z,5.23
2019-05-03T13:19:27.553Z,6.80
2019-05-03T13:21:56.805Z,5.67
2019-05-03T13:24:26.172Z,5.93
2019-05-03T13:26:55.440Z,7.33
2019-05-03T13:29:25.622Z,4.20
2019-05-03T13:32:01.639Z,4.83
2019-05-03T13:34:26.078Z,4.73
2019-05-03T13:36:55.792Z,7.60
2019-05-03T13:39:26.479Z,6.73
2019-05-03T13:41:56.293Z,6.73
2019-05-03T13:44:25.641Z,6.37
2019-05-03T13:46:55.330Z,10.60
2019-05-03T13:49:26.493Z,7.60
2019-05-03T13:51:56.298Z,5.80
2019-05-03T13:54:25.669Z,3.80
2019-05-03T13:56:55.263Z,6.70
2019-05-03T13:59:25.021Z,9.03
2019-05-03T14:01:54.690Z,7.90
2019-05-03T14:04:24.057Z,7.63
2019-05-03T14:06:55.120Z,8.23
2019-05-03T14:09:25.170Z,6.90
2019-05-03T14:11:55.339Z,4.93
2019-05-03T14:14:25.827Z,5.47
2019-05-03T14:16:55.368Z,7.87
2019-05-03T14:19:26.266Z,7.83
2019-05-03T14:22:05.298Z,6.03
2019-05-03T14:24:35.172Z,6.83
2019-05-03T14:27:05.540Z,7.73
2019-05-03T14:29:35.168Z,7.43
2019-05-03T14:32:05.287Z,8.70
2019-05-03T14:34:35.928Z,6.00
2019-05-03T14:37:05.443Z,6.70
2019-05-03T14:39:34.713Z,6.83
2019-05-03T14:42:04.782Z,8.47
2019-05-03T14:44:35.759Z,10.67
2019-05-03T14:47:05.763Z,5.33
2019-05-03T14:49:36.025Z,7.80
2019-05-03T14:52:05.619Z,5.97
2019-05-03T14:54:38.021Z,5.77
2019-05-03T14:57:09.005Z,5.67
2019-05-03T14:59:55.918Z,9.63
2019-05-03T15:02:40.934Z,6.90
2019-05-03T15:05:01.782Z,5.83
2019-05-03T15:07:31.439Z,7.67
2019-05-03T15:10:00.722Z,8.63
2019-05-03T15:12:29.994Z,8.20
2019-05-03T15:14:59.283Z,6.03
2019-05-03T15:17:28.558Z,9.40
2019-05-03T15:19:57.837Z,8.60
2019-05-03T15:22:27.100Z,6.83
2019-05-03T15:24:56.377Z,7.03
2019-05-03T15:27:25.650Z,6.73
2019-05-03T15:29:55.547Z,6.90
2019-05-03T15:32:25.058Z,8.30
2019-05-03T15:34:55.339Z,7.70
2019-05-03T15:37:25.563Z,7.20
2019-05-03T15:39:55.233Z,6.27
2019-05-03T15:42:25.580Z,6.30
2019-05-03T15:45:14.640Z,12.27
2019-05-03T15:47:57.964Z,7.63
2019-05-03T15:50:27.256Z,5.90
2019-05-03T15:52:56.554Z,8.20
2019-05-03T15:55:25.871Z,10.70
2019-05-03T15:57:55.310Z,9.27
2019-05-03T16:00:24.772Z,6.70
2019-05-03T16:02:54.721Z,6.40
2019-05-03T16:05:25.390Z,12.07
2019-05-03T16:07:56.065Z,7.40
2019-05-03T16:10:25.646Z,8.10
2019-05-03T16:12:54.949Z,8.50
2019-05-03T16:15:24.753Z,7.77
2019-05-03T16:17:54.729Z,9.40
2019-05-03T16:20:25.115Z,8.67
2019-05-03T16:22:54.935Z,7.17
2019-05-03T16:25:25.282Z,9.43
2019-05-03T16:27:59.779Z,9.13
2019-05-03T16:30:30.703Z,5.77
2019-05-03T16:33:00.326Z,5.60
2019-05-03T16:35:29.654Z,8.40
2019-05-03T16:37:59.533Z,6.57
2019-05-03T16:40:28.822Z,5.90
2019-05-03T16:42:58.108Z,8.20
2019-05-03T16:45:27.748Z,8.97
2019-05-03T16:47:57.053Z,8.07
2019-05-03T16:50:27.897Z,9.87
2019-05-03T16:52:57.157Z,7.67
2019-05-03T16:55:26.448Z,7.30
2019-05-03T16:57:55.723Z,10.33
2019-05-03T17:00:25.461Z,9.90
2019-05-03T17:02:55.189Z,9.23
2019-05-03T17:05:42.436Z,8.40
2019-05-03T17:08:16.129Z,8.43
2019-05-03T17:10:57.076Z,8.10
2019-05-03T17:13:26.726Z,12.50
2019-05-03T17:15:56.096Z,9.40
2019-05-03T17:18:25.466Z,9.27
2019-05-03T17:20:54.864Z,9.60
2019-05-03T17:23:24.643Z,6.87
2019-05-03T17:25:54.022Z,8.67
2019-05-03T17:28:24.776Z,9.97
2019-05-03T17:30:55.462Z,8.53
2019-05-03T17:33:25.365Z,9.40
2019-05-03T17:35:54.962Z,6.67
2019-05-03T17:38:24.298Z,6.27
2019-05-03T17:40:55.574Z,9.80
2019-05-03T17:43:29.500Z,6.70
2019-05-03T17:46:00.464Z,10.77
2019-05-03T17:48:31.156Z,11.43
2019-05-03T17:51:00.469Z,13.37
2019-05-03T17:53:37.099Z,9.13
2019-05-03T17:56:17.920Z,8.60
2019-05-03T17:58:51.821Z,9.00
2019-05-03T18:01:39.442Z,7.70
2019-05-03T18:04:15.942Z,8.40
2019-05-03T18:06:47.156Z,11.23
2019-05-03T18:09:18.120Z,10.90
2019-05-03T18:11:52.010Z,8.00
2019-05-03T18:14:22.375Z,6.87
2019-05-03T18:16:51.641Z,8.57
2019-05-03T18:19:20.937Z,6.50
2019-05-03T18:21:50.208Z,11.03
2019-05-03T18:24:19.498Z,6.60
2019-05-03T18:26:48.765Z,8.10
2019-05-03T18:29:18.333Z,10.90
2019-05-03T18:31:47.609Z,12.00
2019-05-03T18:34:20.877Z,9.27
2019-05-03T18:36:48.214Z,10.80
2019-05-03T18:39:17.501Z,13.17
2019-05-03T18:41:46.772Z,8.97
2019-05-03T18:44:26.654Z,10.73
2019-05-03T18:46:57.562Z,8.03
2019-05-03T18:49:26.846Z,6.77
2019-05-03T18:51:56.202Z,7.43
2019-05-03T18:54:25.485Z,7.10
2019-05-03T18:56:55.776Z,8.60
2019-05-03T18:59:25.197Z,8.40
2019-05-03T19:01:55.225Z,8.53
2019-05-03T19:04:34.725Z,8.17
2019-05-03T19:07:04.253Z,9.87
2019-05-03T19:09:45.197Z,10.60
2019-05-03T19:12:18.777Z,9.73
2019-05-03T19:14:48.342Z,7.77
2019-05-03T19:17:31.200Z,9.90
2019-05-03T19:20:01.257Z,10.40
2019-05-03T19:22:30.941Z,13.17
2019-05-03T19:25:00.237Z,11.60
2019-05-03T19:27:29.508Z,12.20
2019-05-03T19:29:58.789Z,12.70
2019-05-03T19:32:28.496Z,12.50
2019-05-03T19:34:57.824Z,11.97
2019-05-03T19:37:27.428Z,16.33
2019-05-03T19:39:56.710Z,8.90
2019-05-03T19:42:27.398Z,10.97
2019-05-03T19:44:56.881Z,7.50
2019-05-03T19:47:26.150Z,8.27
2019-05-03T19:49:55.769Z,10.93
2019-05-03T19:52:26.721Z,9.73
2019-05-03T19:54:56.008Z,10.77
2019-05-03T19:57:26.909Z,8.23
2019-05-03T19:59:56.993Z,10.17
2019-05-03T20:02:45.402Z,15.00
2019-05-03T20:05:22.709Z,9.10
2019-05-03T20:07:59.268Z,8.40
2019-05-03T20:10:29.901Z,11.63
2019-05-03T20:12:59.401Z,8.93
2019-05-03T20:15:28.677Z,11.80
2019-05-03T20:18:00.308Z,9.90
2019-05-03T20:20:28.909Z,9.97
2019-05-03T20:22:59.081Z,11.63
2019-05-03T20:25:28.464Z,10.20
2019-05-03T20:27:57.739Z,12.97
2019-05-03T20:30:27.040Z,13.43
2019-05-03T20:32:56.311Z,14.43
2019-05-03T20:35:25.580Z,11.97
2019-05-03T20:37:55.445Z,11.20
2019-05-03T20:40:25.572Z,18.20
2019-05-03T20:43:02.485Z,11.67
2019-05-03T20:45:35.438Z,10.40
2019-05-03T20:48:06.684Z,14.63
2019-05-03T20:50:35.959Z,9.60
2019-05-03T20:53:05.503Z,11.77
2019-05-03T20:55:35.058Z,12.83
2019-05-03T20:58:06.468Z,15.83
2019-05-03T21:00:35.544Z,15.20
2019-05-03T21:03:05.012Z,11.13
2019-05-03T21:05:37.233Z,15.10
2019-05-03T21:08:05.769Z,12.70
2019-05-03T21:10:35.089Z,10.10
2019-05-03T21:13:05.479Z,12.53
2019-05-03T21:15:45.674Z,13.23
2019-05-03T21:18:19.315Z,12.70
2019-05-03T21:21:05.004Z,12.87
2019-05-03T21:23:35.920Z,11.00
2019-05-03T21:26:13.267Z,16.73
2019-05-03T21:28:41.969Z,16.77
2019-05-03T21:31:11.244Z,14.03
2019-05-03T21:33:40.533Z,17.87
2019-05-03T21:36:09.815Z,15.10
2019-05-03T21:38:40.963Z,13.73
2019-05-03T21:41:10.360Z,15.33
2019-05-03T21:43:39.646Z,16.03
2019-05-03T21:46:15.036Z,16.77
2019-05-03T21:48:48.785Z,16.53
2019-05-03T21:51:19.132Z,17.53
2019-05-03T21:53:48.417Z,21.52
2019-05-03T21:56:17.925Z,17.93
2019-05-03T21:58:47.487Z,17.83
2019-05-03T22:01:17.227Z,18.33
2019-05-03T22:03:46.581Z,16.87
2019-05-03T22:06:17.155Z,23.92
2019-05-03T22:08:46.737Z,20.23
2019-05-03T22:11:16.018Z,23.35
2019-05-03T22:13:46.947Z,23.18
2019-05-03T22:16:26.987Z,27.13
2019-05-03T22:18:56.272Z,22.27
2019-05-03T22:21:29.905Z,25.30
2019-05-03T22:24:04.472Z,21.55
2019-05-03T22:26:51.551Z,21.30
2019-05-03T22:29:20.908Z,20.67
2019-05-03T22:31:50.190Z,27.10
2019-05-03T22:34:20.454Z,26.87
2019-05-03T22:36:49.734Z,29.80
2019-05-03T22:39:19.017Z,23.92
2019-05-03T22:41:48.293Z,29.83
2019-05-03T22:44:17.775Z,31.07
2019-05-03T22:46:47.264Z,23.43
2019-05-03T22:49:16.577Z,26.37
2019-05-03T22:51:45.853Z,30.97
2019-05-03T22:54:15.473Z,30.77
2019-05-03T22:56:45.780Z,29.20
2019-05-03T22:59:15.147Z,30.70
2019-05-03T23:01:45.830Z,29.40
2019-05-03T23:04:15.289Z,30.77
2019-05-03T23:06:47.106Z,29.92
2019-05-03T23:09:15.980Z,31.90
2019-05-03T23:11:45.414Z,33.73
2019-05-03T23:14:15.773Z,35.03
2019-05-03T23:16:45.160Z,27.85
2019-05-03T23:19:14.889Z,23.70
2019-05-03T23:21:49.198Z,17.55
2019-05-03T23:24:18.778Z,19.05
2019-05-03T23:26:48.297Z,22.27
2019-05-03T23:29:17.577Z,21.62
2019-05-03T23:31:47.094Z,24.50
2019-05-03T23:34:16.373Z,21.85
2019-05-03T23:36:46.625Z,28.25
2019-05-03T23:39:15.906Z,26.68
2019-05-03T23:41:45.413Z,24.23
2019-05-03T23:44:15.175Z,24.40
2019-05-03T23:46:49.721Z,27.20
2019-05-03T23:49:18.993Z,24.32
2019-05-03T23:51:49.917Z,25.00
2019-05-03T23:54:19.269Z,26.35
2019-05-03T23:56:48.862Z,26.48
2019-05-03T23:59:18.367Z,28.87
